sensor_id;sensor_type;location;lat;lon;timestamp;temperature;humidity
44823;DHT22;51097;51.984;5.650;2022-12-10T00:00:35;2.30;99.90
44823;DHT22;51097;51.984;5.650;2022-12-10T00:03:00;2.40;99.90
44823;DHT22;51097;51.984;5.650;2022-12-10T00:05:27;2.40;99.90
44823;DHT22;51097;51.984;5.650;2022-12-10T00:07:52;2.50;99.90
44823;DHT22;51097;51.984;5.650;2022-12-10T00:10:18;2.30;99.90
44823;DHT22;51097;51.984;5.650;2022-12-10T00:12:43;2.30;99.90
44823;DHT22;51097;51.984;5.650;2022-12-10T00:15:09;2.20;99.90
44823;DHT22;51097;51.984;5.650;2022-12-10T00:17:35;2.30;99.90
44823;DHT22;51097;51.984;5.650;2022-12-10T00:20:01;2.40;99.90
44823;DHT22;51097;51.984;5.650;2022-12-10T00:22:27;2.30;99.90
44823;DHT22;51097;51.984;5.650;2022-12-10T00:24:53;2.40;99.90
44823;DHT22;51097;51.984;5.650;2022-12-10T00:27:18;2.40;99.90
44823;DHT22;51097;51.984;5.650;2022-12-10T00:29:44;2.60;99.90
44823;DHT22;51097;51.984;5.650;2022-12-10T00:32:09;2.50;99.90
44823;DHT22;51097;51.984;5.650;2022-12-10T00:34:35;2.40;99.90
44823;DHT22;51097;51.984;5.650;2022-12-10T00:37:00;2.40;99.90
44823;DHT22;51097;51.984;5.650;2022-12-10T00:39:26;2.30;99.90
44823;DHT22;51097;51.984;5.650;2022-12-10T00:41:52;2.40;99.90
44823;DHT22;51097;51.984;5.650;2022-12-10T00:44:17;2.50;99.90
44823;DHT22;51097;51.984;5.650;2022-12-10T00:46:44;2.40;99.90
44823;DHT22;51097;51.984;5.650;2022-12-10T00:49:10;2.40;99.90
44823;DHT22;51097;51.984;5.650;2022-12-10T00:51:35;2.40;99.90
44823;DHT22;51097;51.984;5.650;2022-12-10T00:54:01;2.40;99.90
44823;DHT22;51097;51.984;5.650;2022-12-10T00:56:29;2.30;99.90
44823;DHT22;51097;51.984;5.650;2022-12-10T00:58:55;2.40;99.90
44823;DHT22;51097;51.984;5.650;2022-12-10T01:01:26;2.40;99.90
44823;DHT22;51097;51.984;5.650;2022-12-10T01:03:56;2.40;99.90
44823;DHT22;51097;51.984;5.650;2022-12-10T01:08:49;2.40;99.90
44823;DHT22;51097;51.984;5.650;2022-12-10T01:11:17;2.30;99.90
44823;DHT22;51097;51.984;5.650;2022-12-10T01:13:44;2.40;99.90
44823;DHT22;51097;51.984;5.650;2022-12-10T01:16:12;2.40;99.90
44823;DHT22;51097;51.984;5.650;2022-12-10T01:18:38;2.30;99.90
44823;DHT22;51097;51.984;5.650;2022-12-10T01:21:09;2.30;99.90
44823;DHT22;51097;51.984;5.650;2022-12-10T01:23:37;2.30;99.90
44823;DHT22;51097;51.984;5.650;2022-12-10T01:26:09;2.30;99.90
44823;DHT22;51097;51.984;5.650;2022-12-10T01:28:36;2.20;99.90
44823;DHT22;51097;51.984;5.650;2022-12-10T01:31:04;2.20;99.90
44823;DHT22;51097;51.984;5.650;2022-12-10T01:33:31;2.30;99.90
44823;DHT22;51097;51.984;5.650;2022-12-10T01:36:05;2.30;99.90
44823;DHT22;51097;51.984;5.650;2022-12-10T01:38:31;2.20;99.90
44823;DHT22;51097;51.984;5.650;2022-12-10T01:40:58;2.20;99.90
44823;DHT22;51097;51.984;5.650;2022-12-10T01:43:24;2.20;99.90
44823;DHT22;51097;51.984;5.650;2022-12-10T01:45:49;2.10;99.90
44823;DHT22;51097;51.984;5.650;2022-12-10T01:48:15;2.20;99.90
44823;DHT22;51097;51.984;5.650;2022-12-10T01:50:40;2.20;99.90
44823;DHT22;51097;51.984;5.650;2022-12-10T01:53:07;2.20;99.90
44823;DHT22;51097;51.984;5.650;2022-12-10T01:58:10;2.10;99.90
44823;DHT22;51097;51.984;5.650;2022-12-10T02:00:40;2.10;99.90
44823;DHT22;51097;51.984;5.650;2022-12-10T02:03:24;2.10;99.90
44823;DHT22;51097;51.984;5.650;2022-12-10T02:06:04;2.00;99.90
44823;DHT22;51097;51.984;5.650;2022-12-10T02:08:44;2.00;99.90
44823;DHT22;51097;51.984;5.650;2022-12-10T02:11:16;1.90;99.90
44823;DHT22;51097;51.984;5.650;2022-12-10T02:13:56;1.90;99.90
44823;DHT22;51097;51.984;5.650;2022-12-10T02:16:40;1.90;99.90
44823;DHT22;51097;51.984;5.650;2022-12-10T02:22:01;1.90;99.90
44823;DHT22;51097;51.984;5.650;2022-12-10T02:24:29;1.90;99.90
44823;DHT22;51097;51.984;5.650;2022-12-10T02:27:06;1.90;99.90
44823;DHT22;51097;51.984;5.650;2022-12-10T02:29:37;1.80;99.90
44823;DHT22;51097;51.984;5.650;2022-12-10T02:32:07;1.80;99.90
44823;DHT22;51097;51.984;5.650;2022-12-10T02:34:42;1.80;99.90
44823;DHT22;51097;51.984;5.650;2022-12-10T02:37:15;1.80;99.90
44823;DHT22;51097;51.984;5.650;2022-12-10T02:39:47;1.90;99.90
44823;DHT22;51097;51.984;5.650;2022-12-10T02:42:15;1.80;99.90
44823;DHT22;51097;51.984;5.650;2022-12-10T02:44:42;1.90;99.90
44823;DHT22;51097;51.984;5.650;2022-12-10T02:47:09;1.90;99.90
44823;DHT22;51097;51.984;5.650;2022-12-10T02:49:37;1.80;99.90
44823;DHT22;51097;51.984;5.650;2022-12-10T02:52:09;1.80;99.90
44823;DHT22;51097;51.984;5.650;2022-12-10T02:54:38;1.80;99.90
44823;DHT22;51097;51.984;5.650;2022-12-10T03:00:03;1.80;99.90
44823;DHT22;51097;51.984;5.650;2022-12-10T03:03:32;1.70;99.90
44823;DHT22;51097;51.984;5.650;2022-12-10T03:06:05;1.70;99.90
44823;DHT22;51097;51.984;5.650;2022-12-10T03:08:51;1.70;99.90
44823;DHT22;51097;51.984;5.650;2022-12-10T03:11:22;1.80;99.90
44823;DHT22;51097;51.984;5.650;2022-12-10T03:16:24;1.70;99.90
44823;DHT22;51097;51.984;5.650;2022-12-10T03:18:54;1.70;99.90
44823;DHT22;51097;51.984;5.650;2022-12-10T03:21:21;1.60;99.90
44823;DHT22;51097;51.984;5.650;2022-12-10T03:23:49;1.60;99.90
44823;DHT22;51097;51.984;5.650;2022-12-10T03:26:16;1.70;99.90
44823;DHT22;51097;51.984;5.650;2022-12-10T03:28:49;1.70;99.90
44823;DHT22;51097;51.984;5.650;2022-12-10T03:31:16;1.70;99.90
44823;DHT22;51097;51.984;5.650;2022-12-10T03:33:44;1.70;99.90
44823;DHT22;51097;51.984;5.650;2022-12-10T03:36:11;1.80;99.90
44823;DHT22;51097;51.984;5.650;2022-12-10T03:38:37;1.90;99.90
44823;DHT22;51097;51.984;5.650;2022-12-10T03:41:03;1.90;99.90
44823;DHT22;51097;51.984;5.650;2022-12-10T03:43:29;1.90;99.90
44823;DHT22;51097;51.984;5.650;2022-12-10T03:45:55;2.00;99.90
44823;DHT22;51097;51.984;5.650;2022-12-10T03:48:20;1.90;99.90
44823;DHT22;51097;51.984;5.650;2022-12-10T03:50:46;2.00;99.90
44823;DHT22;51097;51.984;5.650;2022-12-10T03:53:11;2.00;99.90
44823;DHT22;51097;51.984;5.650;2022-12-10T03:55:37;2.10;99.90
44823;DHT22;51097;51.984;5.650;2022-12-10T03:58:03;2.10;99.90
44823;DHT22;51097;51.984;5.650;2022-12-10T04:00:29;2.10;99.90
44823;DHT22;51097;51.984;5.650;2022-12-10T04:02:54;2.30;99.90
44823;DHT22;51097;51.984;5.650;2022-12-10T04:05:20;2.30;99.90
44823;DHT22;51097;51.984;5.650;2022-12-10T04:07:45;2.20;99.90
44823;DHT22;51097;51.984;5.650;2022-12-10T04:10:11;2.20;99.90
44823;DHT22;51097;51.984;5.650;2022-12-10T04:12:38;2.30;99.90
44823;DHT22;51097;51.984;5.650;2022-12-10T04:15:04;2.30;99.90
44823;DHT22;51097;51.984;5.650;2022-12-10T04:17:48;2.30;99.90
44823;DHT22;51097;51.984;5.650;2022-12-10T04:20:13;2.20;99.90
44823;DHT22;51097;51.984;5.650;2022-12-10T04:22:57;2.40;99.90
44823;DHT22;51097;51.984;5.650;2022-12-10T04:25:41;2.40;99.90
44823;DHT22;51097;51.984;5.650;2022-12-10T04:28:26;2.40;99.90
44823;DHT22;51097;51.984;5.650;2022-12-10T04:30:52;2.30;99.90
44823;DHT22;51097;51.984;5.650;2022-12-10T04:33:17;2.30;99.90
44823;DHT22;51097;51.984;5.650;2022-12-10T04:35:43;2.30;99.90
44823;DHT22;51097;51.984;5.650;2022-12-10T04:38:08;2.40;99.90
44823;DHT22;51097;51.984;5.650;2022-12-10T04:40:34;2.40;99.90
44823;DHT22;51097;51.984;5.650;2022-12-10T04:42:59;2.50;99.90
44823;DHT22;51097;51.984;5.650;2022-12-10T04:45:25;2.50;99.90
44823;DHT22;51097;51.984;5.650;2022-12-10T04:47:50;2.50;99.90
44823;DHT22;51097;51.984;5.650;2022-12-10T04:50:16;2.60;99.90
44823;DHT22;51097;51.984;5.650;2022-12-10T04:52:42;2.50;99.90
44823;DHT22;51097;51.984;5.650;2022-12-10T04:55:08;2.60;99.90
44823;DHT22;51097;51.984;5.650;2022-12-10T04:57:33;2.60;99.90
44823;DHT22;51097;51.984;5.650;2022-12-10T04:59:59;2.60;99.90
44823;DHT22;51097;51.984;5.650;2022-12-10T05:02:24;2.50;99.90
44823;DHT22;51097;51.984;5.650;2022-12-10T05:04:50;2.50;99.90
44823;DHT22;51097;51.984;5.650;2022-12-10T05:07:15;2.50;99.90
44823;DHT22;51097;51.984;5.650;2022-12-10T05:09:41;2.40;99.90
44823;DHT22;51097;51.984;5.650;2022-12-10T05:12:07;2.50;99.90
44823;DHT22;51097;51.984;5.650;2022-12-10T05:14:32;2.40;99.90
44823;DHT22;51097;51.984;5.650;2022-12-10T05:16:58;2.50;99.90
44823;DHT22;51097;51.984;5.650;2022-12-10T05:19:23;2.60;99.90
44823;DHT22;51097;51.984;5.650;2022-12-10T05:21:51;2.50;99.90
44823;DHT22;51097;51.984;5.650;2022-12-10T05:24:37;2.50;99.90
44823;DHT22;51097;51.984;5.650;2022-12-10T05:27:03;2.50;99.90
44823;DHT22;51097;51.984;5.650;2022-12-10T05:29:28;2.50;99.90
44823;DHT22;51097;51.984;5.650;2022-12-10T05:31:54;2.50;99.90
44823;DHT22;51097;51.984;5.650;2022-12-10T05:34:20;2.50;99.90
44823;DHT22;51097;51.984;5.650;2022-12-10T05:36:46;2.50;99.90
44823;DHT22;51097;51.984;5.650;2022-12-10T05:39:11;2.50;99.90
44823;DHT22;51097;51.984;5.650;2022-12-10T05:41:39;2.50;99.90
44823;DHT22;51097;51.984;5.650;2022-12-10T05:44:05;2.60;99.90
44823;DHT22;51097;51.984;5.650;2022-12-10T05:46:33;2.50;99.90
44823;DHT22;51097;51.984;5.650;2022-12-10T05:49:00;2.50;99.90
44823;DHT22;51097;51.984;5.650;2022-12-10T05:51:28;2.50;99.90
44823;DHT22;51097;51.984;5.650;2022-12-10T05:53:56;2.60;99.90
44823;DHT22;51097;51.984;5.650;2022-12-10T05:56:23;2.40;99.90
44823;DHT22;51097;51.984;5.650;2022-12-10T05:58:50;2.50;99.90
44823;DHT22;51097;51.984;5.650;2022-12-10T06:01:18;2.40;99.90
44823;DHT22;51097;51.984;5.650;2022-12-10T06:03:44;2.40;99.90
44823;DHT22;51097;51.984;5.650;2022-12-10T06:06:11;2.40;99.90
44823;DHT22;51097;51.984;5.650;2022-12-10T06:08:37;2.40;99.90
44823;DHT22;51097;51.984;5.650;2022-12-10T06:11:07;2.50;99.90
44823;DHT22;51097;51.984;5.650;2022-12-10T06:13:34;2.50;99.90
44823;DHT22;51097;51.984;5.650;2022-12-10T06:16:03;2.50;99.90
44823;DHT22;51097;51.984;5.650;2022-12-10T06:18:29;2.50;99.90
44823;DHT22;51097;51.984;5.650;2022-12-10T06:20:54;2.50;99.90
44823;DHT22;51097;51.984;5.650;2022-12-10T06:23:20;2.40;99.90
44823;DHT22;51097;51.984;5.650;2022-12-10T06:25:45;2.50;99.90
44823;DHT22;51097;51.984;5.650;2022-12-10T06:28:11;2.50;99.90
44823;DHT22;51097;51.984;5.650;2022-12-10T06:30:36;2.60;99.90
44823;DHT22;51097;51.984;5.650;2022-12-10T06:33:02;2.50;99.90
44823;DHT22;51097;51.984;5.650;2022-12-10T06:35:28;2.40;99.90
44823;DHT22;51097;51.984;5.650;2022-12-10T06:37:53;2.40;99.90
44823;DHT22;51097;51.984;5.650;2022-12-10T06:40:19;2.50;99.90
44823;DHT22;51097;51.984;5.650;2022-12-10T06:42:44;2.30;99.90
44823;DHT22;51097;51.984;5.650;2022-12-10T06:45:10;2.30;99.90
44823;DHT22;51097;51.984;5.650;2022-12-10T06:47:36;2.30;99.90
44823;DHT22;51097;51.984;5.650;2022-12-10T06:50:02;2.40;99.90
44823;DHT22;51097;51.984;5.650;2022-12-10T06:52:27;2.40;99.90
44823;DHT22;51097;51.984;5.650;2022-12-10T06:54:53;2.30;99.90
44823;DHT22;51097;51.984;5.650;2022-12-10T06:57:20;2.40;99.90
44823;DHT22;51097;51.984;5.650;2022-12-10T06:59:46;2.40;99.90
44823;DHT22;51097;51.984;5.650;2022-12-10T07:02:12;2.40;99.90
44823;DHT22;51097;51.984;5.650;2022-12-10T07:04:37;2.30;99.90
44823;DHT22;51097;51.984;5.650;2022-12-10T07:07:04;2.40;99.90
44823;DHT22;51097;51.984;5.650;2022-12-10T07:09:29;2.40;99.90
44823;DHT22;51097;51.984;5.650;2022-12-10T07:11:57;2.40;99.90
44823;DHT22;51097;51.984;5.650;2022-12-10T07:14:22;2.50;99.90
44823;DHT22;51097;51.984;5.650;2022-12-10T07:16:48;2.50;99.90
44823;DHT22;51097;51.984;5.650;2022-12-10T07:19:13;2.40;99.90
44823;DHT22;51097;51.984;5.650;2022-12-10T07:21:41;2.50;99.90
44823;DHT22;51097;51.984;5.650;2022-12-10T07:24:11;2.40;99.90
44823;DHT22;51097;51.984;5.650;2022-12-10T07:26:39;2.40;99.90
44823;DHT22;51097;51.984;5.650;2022-12-10T07:29:06;2.40;99.90
44823;DHT22;51097;51.984;5.650;2022-12-10T07:31:34;2.50;99.90
44823;DHT22;51097;51.984;5.650;2022-12-10T07:34:00;2.40;99.90
44823;DHT22;51097;51.984;5.650;2022-12-10T07:36:26;2.50;99.90
44823;DHT22;51097;51.984;5.650;2022-12-10T07:38:52;2.40;99.90
44823;DHT22;51097;51.984;5.650;2022-12-10T07:41:19;2.40;99.90
44823;DHT22;51097;51.984;5.650;2022-12-10T07:43:45;2.40;99.90
44823;DHT22;51097;51.984;5.650;2022-12-10T07:46:20;2.40;99.90
44823;DHT22;51097;51.984;5.650;2022-12-10T07:48:47;2.40;99.90
44823;DHT22;51097;51.984;5.650;2022-12-10T07:51:14;2.40;99.90
44823;DHT22;51097;51.984;5.650;2022-12-10T07:53:41;2.40;99.90
44823;DHT22;51097;51.984;5.650;2022-12-10T07:56:07;2.30;99.90
44823;DHT22;51097;51.984;5.650;2022-12-10T07:58:33;2.30;99.90
44823;DHT22;51097;51.984;5.650;2022-12-10T08:00:59;2.40;99.90
44823;DHT22;51097;51.984;5.650;2022-12-10T08:03:24;2.40;99.90
44823;DHT22;51097;51.984;5.650;2022-12-10T08:06:05;2.40;99.90
44823;DHT22;51097;51.984;5.650;2022-12-10T08:08:32;2.40;99.90
44823;DHT22;51097;51.984;5.650;2022-12-10T08:11:01;2.40;99.90
44823;DHT22;51097;51.984;5.650;2022-12-10T08:13:28;2.40;99.90
44823;DHT22;51097;51.984;5.650;2022-12-10T08:15:53;2.30;99.90
44823;DHT22;51097;51.984;5.650;2022-12-10T08:18:20;2.30;99.90
44823;DHT22;51097;51.984;5.650;2022-12-10T08:20:46;2.40;99.90
44823;DHT22;51097;51.984;5.650;2022-12-10T08:23:11;2.50;99.90
44823;DHT22;51097;51.984;5.650;2022-12-10T08:25:37;2.40;99.90
44823;DHT22;51097;51.984;5.650;2022-12-10T08:28:02;2.40;99.90
44823;DHT22;51097;51.984;5.650;2022-12-10T08:30:29;2.30;99.90
44823;DHT22;51097;51.984;5.650;2022-12-10T08:32:55;2.40;99.90
44823;DHT22;51097;51.984;5.650;2022-12-10T08:35:20;2.40;99.90
44823;DHT22;51097;51.984;5.650;2022-12-10T08:37:46;2.40;99.90
44823;DHT22;51097;51.984;5.650;2022-12-10T08:40:12;2.40;99.90
44823;DHT22;51097;51.984;5.650;2022-12-10T08:42:38;2.40;99.90
44823;DHT22;51097;51.984;5.650;2022-12-10T08:45:04;2.40;99.90
44823;DHT22;51097;51.984;5.650;2022-12-10T08:47:30;2.40;99.90
44823;DHT22;51097;51.984;5.650;2022-12-10T08:49:55;2.30;99.90
44823;DHT22;51097;51.984;5.650;2022-12-10T08:52:21;2.30;99.90
44823;DHT22;51097;51.984;5.650;2022-12-10T08:54:46;2.40;99.90
44823;DHT22;51097;51.984;5.650;2022-12-10T08:57:12;2.40;99.90
44823;DHT22;51097;51.984;5.650;2022-12-10T08:59:37;2.40;99.90
44823;DHT22;51097;51.984;5.650;2022-12-10T09:02:03;2.50;99.90
44823;DHT22;51097;51.984;5.650;2022-12-10T09:04:29;2.50;99.90
44823;DHT22;51097;51.984;5.650;2022-12-10T09:06:54;2.50;99.90
44823;DHT22;51097;51.984;5.650;2022-12-10T09:09:20;2.60;99.90
44823;DHT22;51097;51.984;5.650;2022-12-10T09:11:45;2.50;99.90
44823;DHT22;51097;51.984;5.650;2022-12-10T09:14:12;2.50;99.90
44823;DHT22;51097;51.984;5.650;2022-12-10T09:16:38;2.60;99.90
44823;DHT22;51097;51.984;5.650;2022-12-10T09:19:05;2.60;99.90
44823;DHT22;51097;51.984;5.650;2022-12-10T09:21:31;2.60;99.90
44823;DHT22;51097;51.984;5.650;2022-12-10T09:23:57;2.60;99.90
44823;DHT22;51097;51.984;5.650;2022-12-10T09:26:23;2.60;99.90
44823;DHT22;51097;51.984;5.650;2022-12-10T09:28:49;2.50;99.90
44823;DHT22;51097;51.984;5.650;2022-12-10T09:31:16;2.50;99.90
44823;DHT22;51097;51.984;5.650;2022-12-10T09:33:43;2.50;99.90
44823;DHT22;51097;51.984;5.650;2022-12-10T09:36:10;2.70;99.90
44823;DHT22;51097;51.984;5.650;2022-12-10T09:38:38;2.80;99.90
44823;DHT22;51097;51.984;5.650;2022-12-10T09:43:57;2.80;99.90
44823;DHT22;51097;51.984;5.650;2022-12-10T09:46:54;2.80;99.90
44823;DHT22;51097;51.984;5.650;2022-12-10T09:52:12;2.80;99.90
44823;DHT22;51097;51.984;5.650;2022-12-10T09:54:48;3.10;99.90
44823;DHT22;51097;51.984;5.650;2022-12-10T09:57:29;3.10;99.90
44823;DHT22;51097;51.984;5.650;2022-12-10T09:59:56;3.10;99.90
44823;DHT22;51097;51.984;5.650;2022-12-10T10:02:28;3.10;99.90
44823;DHT22;51097;51.984;5.650;2022-12-10T10:05:06;3.20;99.90
44823;DHT22;51097;51.984;5.650;2022-12-10T10:07:38;3.30;99.90
44823;DHT22;51097;51.984;5.650;2022-12-10T10:10:24;3.20;99.90
44823;DHT22;51097;51.984;5.650;2022-12-10T10:12:52;3.30;99.90
44823;DHT22;51097;51.984;5.650;2022-12-10T10:15:25;3.30;99.90
44823;DHT22;51097;51.984;5.650;2022-12-10T10:17:53;3.40;99.90
44823;DHT22;51097;51.984;5.650;2022-12-10T10:20:19;3.40;99.90
44823;DHT22;51097;51.984;5.650;2022-12-10T10:22:45;3.40;99.90
44823;DHT22;51097;51.984;5.650;2022-12-10T10:25:18;3.30;99.90
44823;DHT22;51097;51.984;5.650;2022-12-10T10:27:44;3.20;99.90
44823;DHT22;51097;51.984;5.650;2022-12-10T10:30:18;3.30;99.90
44823;DHT22;51097;51.984;5.650;2022-12-10T10:32:47;3.20;99.90
44823;DHT22;51097;51.984;5.650;2022-12-10T10:35:27;3.10;99.90
44823;DHT22;51097;51.984;5.650;2022-12-10T10:38:08;3.10;99.90
44823;DHT22;51097;51.984;5.650;2022-12-10T10:40:43;3.20;99.90
44823;DHT22;51097;51.984;5.650;2022-12-10T10:43:20;3.20;99.90
44823;DHT22;51097;51.984;5.650;2022-12-10T10:45:58;3.30;99.90
44823;DHT22;51097;51.984;5.650;2022-12-10T10:48:27;3.30;99.90
44823;DHT22;51097;51.984;5.650;2022-12-10T10:50:54;3.30;99.90
44823;DHT22;51097;51.984;5.650;2022-12-10T10:53:29;3.30;99.90
44823;DHT22;51097;51.984;5.650;2022-12-10T10:56:07;3.50;99.90
44823;DHT22;51097;51.984;5.650;2022-12-10T10:58:34;3.50;99.90
44823;DHT22;51097;51.984;5.650;2022-12-10T11:01:04;3.60;99.90
44823;DHT22;51097;51.984;5.650;2022-12-10T11:03:30;3.60;99.90
44823;DHT22;51097;51.984;5.650;2022-12-10T11:05:58;3.50;99.90
44823;DHT22;51097;51.984;5.650;2022-12-10T11:08:28;3.50;99.90
44823;DHT22;51097;51.984;5.650;2022-12-10T11:11:06;3.50;99.90
44823;DHT22;51097;51.984;5.650;2022-12-10T11:13:35;3.50;99.90
44823;DHT22;51097;51.984;5.650;2022-12-10T11:16:09;3.60;99.90
44823;DHT22;51097;51.984;5.650;2022-12-10T11:18:59;3.50;99.90
44823;DHT22;51097;51.984;5.650;2022-12-10T11:21:28;3.50;99.90
44823;DHT22;51097;51.984;5.650;2022-12-10T11:23:55;3.50;99.90
44823;DHT22;51097;51.984;5.650;2022-12-10T11:29:46;3.50;99.90
44823;DHT22;51097;51.984;5.650;2022-12-10T11:35:05;3.60;99.90
44823;DHT22;51097;51.984;5.650;2022-12-10T11:38:03;3.70;99.90
44823;DHT22;51097;51.984;5.650;2022-12-10T11:46:10;3.60;99.90
44823;DHT22;51097;51.984;5.650;2022-12-10T11:51:34;3.70;99.90
44823;DHT22;51097;51.984;5.650;2022-12-10T11:57:09;3.60;99.90
44823;DHT22;51097;51.984;5.650;2022-12-10T12:00:05;3.60;99.90
44823;DHT22;51097;51.984;5.650;2022-12-10T12:06:03;3.50;99.90
44823;DHT22;51097;51.984;5.650;2022-12-10T12:14:46;3.40;99.90
44823;DHT22;51097;51.984;5.650;2022-12-10T12:19:50;3.40;99.90
44823;DHT22;51097;51.984;5.650;2022-12-10T12:22:24;3.50;99.90
44823;DHT22;51097;51.984;5.650;2022-12-10T12:24:56;3.60;99.90
44823;DHT22;51097;51.984;5.650;2022-12-10T12:27:33;3.60;99.90
44823;DHT22;51097;51.984;5.650;2022-12-10T12:32:47;3.60;99.90
44823;DHT22;51097;51.984;5.650;2022-12-10T12:35:23;3.70;99.90
44823;DHT22;51097;51.984;5.650;2022-12-10T12:41:03;3.80;99.90
44823;DHT22;51097;51.984;5.650;2022-12-10T12:43:59;3.70;99.90
44823;DHT22;51097;51.984;5.650;2022-12-10T12:46:47;3.90;99.90
44823;DHT22;51097;51.984;5.650;2022-12-10T12:49:24;3.90;99.90
44823;DHT22;51097;51.984;5.650;2022-12-10T12:54:27;3.70;99.90
44823;DHT22;51097;51.984;5.650;2022-12-10T12:57:07;3.70;99.90
44823;DHT22;51097;51.984;5.650;2022-12-10T13:00:10;3.70;99.90
44823;DHT22;51097;51.984;5.650;2022-12-10T13:05:25;3.60;99.90
44823;DHT22;51097;51.984;5.650;2022-12-10T13:14:02;3.70;99.90
44823;DHT22;51097;51.984;5.650;2022-12-10T13:41:05;3.90;99.90
44823;DHT22;51097;51.984;5.650;2022-12-10T13:43:54;3.90;99.90
44823;DHT22;51097;51.984;5.650;2022-12-10T13:49:22;3.80;99.90
44823;DHT22;51097;51.984;5.650;2022-12-10T13:51:52;3.70;99.90
44823;DHT22;51097;51.984;5.650;2022-12-10T13:57:48;3.90;99.90
44823;DHT22;51097;51.984;5.650;2022-12-10T14:00:21;4.00;99.90
44823;DHT22;51097;51.984;5.650;2022-12-10T14:05:55;3.80;99.90
44823;DHT22;51097;51.984;5.650;2022-12-10T14:08:29;3.80;99.90
44823;DHT22;51097;51.984;5.650;2022-12-10T14:10:58;3.80;99.90
44823;DHT22;51097;51.984;5.650;2022-12-10T14:13:34;3.80;99.90
44823;DHT22;51097;51.984;5.650;2022-12-10T14:16:02;3.80;99.90
44823;DHT22;51097;51.984;5.650;2022-12-10T14:18:29;3.80;99.90
44823;DHT22;51097;51.984;5.650;2022-12-10T14:20:55;3.80;99.90
44823;DHT22;51097;51.984;5.650;2022-12-10T14:23:31;3.80;99.90
44823;DHT22;51097;51.984;5.650;2022-12-10T14:26:16;3.80;99.90
44823;DHT22;51097;51.984;5.650;2022-12-10T14:28:45;3.90;99.90
44823;DHT22;51097;51.984;5.650;2022-12-10T14:31:21;3.90;99.90
44823;DHT22;51097;51.984;5.650;2022-12-10T14:33:50;3.80;99.90
44823;DHT22;51097;51.984;5.650;2022-12-10T14:36:48;3.70;99.90
44823;DHT22;51097;51.984;5.650;2022-12-10T14:39:17;3.70;99.90
44823;DHT22;51097;51.984;5.650;2022-12-10T14:41:43;3.60;99.90
44823;DHT22;51097;51.984;5.650;2022-12-10T14:44:14;3.70;99.90
44823;DHT22;51097;51.984;5.650;2022-12-10T14:46:40;3.60;99.90
44823;DHT22;51097;51.984;5.650;2022-12-10T14:49:11;3.70;99.90
44823;DHT22;51097;51.984;5.650;2022-12-10T14:51:39;3.70;99.90
44823;DHT22;51097;51.984;5.650;2022-12-10T14:54:27;3.70;99.90
44823;DHT22;51097;51.984;5.650;2022-12-10T14:56:54;3.80;99.90
44823;DHT22;51097;51.984;5.650;2022-12-10T14:59:28;3.80;99.90
44823;DHT22;51097;51.984;5.650;2022-12-10T15:01:57;3.70;99.90
44823;DHT22;51097;51.984;5.650;2022-12-10T15:04:40;3.70;99.90
44823;DHT22;51097;51.984;5.650;2022-12-10T15:07:15;3.80;99.90
44823;DHT22;51097;51.984;5.650;2022-12-10T15:09:42;3.90;99.90
44823;DHT22;51097;51.984;5.650;2022-12-10T15:12:47;3.70;99.90
44823;DHT22;51097;51.984;5.650;2022-12-10T15:15:24;3.80;99.90
44823;DHT22;51097;51.984;5.650;2022-12-10T15:18:02;3.80;99.90
44823;DHT22;51097;51.984;5.650;2022-12-10T15:20:46;3.80;99.90
44823;DHT22;51097;51.984;5.650;2022-12-10T15:23:17;3.90;99.90
44823;DHT22;51097;51.984;5.650;2022-12-10T15:28:37;3.90;99.90
44823;DHT22;51097;51.984;5.650;2022-12-10T15:34:07;3.90;99.90
44823;DHT22;51097;51.984;5.650;2022-12-10T15:36:37;3.90;99.90
44823;DHT22;51097;51.984;5.650;2022-12-10T15:41:50;3.90;99.90
44823;DHT22;51097;51.984;5.650;2022-12-10T15:44:41;3.90;99.90
44823;DHT22;51097;51.984;5.650;2022-12-10T15:49:40;3.90;99.90
44823;DHT22;51097;51.984;5.650;2022-12-10T15:52:09;4.00;99.90
44823;DHT22;51097;51.984;5.650;2022-12-10T15:54:38;3.90;99.90
44823;DHT22;51097;51.984;5.650;2022-12-10T15:57:21;4.00;99.90
44823;DHT22;51097;51.984;5.650;2022-12-10T15:59:52;4.10;99.90
44823;DHT22;51097;51.984;5.650;2022-12-10T16:02:36;3.90;99.90
44823;DHT22;51097;51.984;5.650;2022-12-10T16:05:32;4.00;99.90
44823;DHT22;51097;51.984;5.650;2022-12-10T16:08:00;4.10;99.90
44823;DHT22;51097;51.984;5.650;2022-12-10T16:10:27;4.10;99.90
44823;DHT22;51097;51.984;5.650;2022-12-10T16:13:05;4.10;99.90
44823;DHT22;51097;51.984;5.650;2022-12-10T16:15:43;4.00;99.90
44823;DHT22;51097;51.984;5.650;2022-12-10T16:18:10;4.00;99.90
44823;DHT22;51097;51.984;5.650;2022-12-10T16:20:36;4.10;99.90
44823;DHT22;51097;51.984;5.650;2022-12-10T16:23:03;4.10;99.90
44823;DHT22;51097;51.984;5.650;2022-12-10T16:25:31;4.10;99.90
44823;DHT22;51097;51.984;5.650;2022-12-10T16:27:58;4.10;99.90
44823;DHT22;51097;51.984;5.650;2022-12-10T16:30:36;4.30;99.90
44823;DHT22;51097;51.984;5.650;2022-12-10T16:33:03;4.20;99.90
44823;DHT22;51097;51.984;5.650;2022-12-10T16:35:29;4.20;99.90
44823;DHT22;51097;51.984;5.650;2022-12-10T16:37:55;4.20;99.90
44823;DHT22;51097;51.984;5.650;2022-12-10T16:40:26;4.30;99.90
44823;DHT22;51097;51.984;5.650;2022-12-10T16:42:56;4.30;99.90
44823;DHT22;51097;51.984;5.650;2022-12-10T16:45:33;4.30;99.90
44823;DHT22;51097;51.984;5.650;2022-12-10T16:48:00;4.20;99.90
44823;DHT22;51097;51.984;5.650;2022-12-10T16:50:25;4.30;99.90
44823;DHT22;51097;51.984;5.650;2022-12-10T16:52:52;4.40;99.90
44823;DHT22;51097;51.984;5.650;2022-12-10T16:55:21;4.30;99.90
44823;DHT22;51097;51.984;5.650;2022-12-10T16:57:48;4.30;99.90
44823;DHT22;51097;51.984;5.650;2022-12-10T17:00:15;4.50;99.90
44823;DHT22;51097;51.984;5.650;2022-12-10T17:02:42;4.40;99.90
44823;DHT22;51097;51.984;5.650;2022-12-10T17:05:35;4.30;99.90
44823;DHT22;51097;51.984;5.650;2022-12-10T17:08:00;4.40;99.90
44823;DHT22;51097;51.984;5.650;2022-12-10T17:10:25;4.30;99.90
44823;DHT22;51097;51.984;5.650;2022-12-10T17:13:10;4.40;99.90
44823;DHT22;51097;51.984;5.650;2022-12-10T17:15:37;4.50;99.90
44823;DHT22;51097;51.984;5.650;2022-12-10T17:18:03;4.30;99.90
44823;DHT22;51097;51.984;5.650;2022-12-10T17:20:29;4.30;99.90
44823;DHT22;51097;51.984;5.650;2022-12-10T17:22:55;4.50;99.90
44823;DHT22;51097;51.984;5.650;2022-12-10T17:25:20;4.30;99.90
44823;DHT22;51097;51.984;5.650;2022-12-10T17:27:46;4.30;99.90
44823;DHT22;51097;51.984;5.650;2022-12-10T17:30:13;4.40;99.90
44823;DHT22;51097;51.984;5.650;2022-12-10T17:32:39;4.40;99.90
44823;DHT22;51097;51.984;5.650;2022-12-10T17:35:05;4.50;99.90
44823;DHT22;51097;51.984;5.650;2022-12-10T17:37:34;4.30;99.90
44823;DHT22;51097;51.984;5.650;2022-12-10T17:40:05;4.30;99.90
44823;DHT22;51097;51.984;5.650;2022-12-10T17:42:35;4.30;99.90
44823;DHT22;51097;51.984;5.650;2022-12-10T17:45:00;4.50;99.90
44823;DHT22;51097;51.984;5.650;2022-12-10T17:47:26;4.40;99.90
44823;DHT22;51097;51.984;5.650;2022-12-10T17:49:53;4.40;99.90
44823;DHT22;51097;51.984;5.650;2022-12-10T17:52:21;4.40;99.90